sensor_id;sensor_type;location;lat;lon;timestamp;P1;durP1;ratioP1;P2;durP2;ratioP2
70927;SDS011;58587;53.034;18.576;2023-04-01T08:52:45;21.27;;;11.18;;
70927;SDS011;58587;53.034;18.576;2023-04-01T09:01:11;16.98;;;10.05;;
70927;SDS011;58587;53.034;18.576;2023-04-01T09:06:34;25.35;;;11.93;;
70927;SDS011;58587;53.034;18.576;2023-04-01T09:11:34;16.80;;;10.23;;
70927;SDS011;58587;53.034;18.576;2023-04-01T09:14:23;14.25;;;9.48;;
70927;SDS011;58587;53.034;18.576;2023-04-01T09:22:39;15.18;;;9.93;;
70927;SDS011;58587;53.034;18.576;2023-04-01T09:27:44;13.43;;;8.85;;
70927;SDS011;58587;53.034;18.576;2023-04-01T09:41:25;21.85;;;11.95;;
70927;SDS011;58587;53.034;18.576;2023-04-01T09:44:00;16.85;;;9.52;;
70927;SDS011;58587;53.034;18.576;2023-04-01T10:43:06;21.08;;;10.77;;
70927;SDS011;58587;53.034;18.576;2023-04-01T10:45:58;16.42;;;9.25;;
70927;SDS011;58587;53.034;18.576;2023-04-01T10:51:34;14.30;;;8.27;;
70927;SDS011;58587;53.034;18.576;2023-04-01T10:54:26;15.98;;;8.45;;
70927;SDS011;58587;53.034;18.576;2023-04-01T10:57:07;15.43;;;8.98;;
70927;SDS011;58587;53.034;18.576;2023-04-01T11:16:36;19.73;;;11.48;;
70927;SDS011;58587;53.034;18.576;2023-04-01T11:24:53;20.30;;;11.25;;
70927;SDS011;58587;53.034;18.576;2023-04-01T11:30:20;22.60;;;12.45;;
70927;SDS011;58587;53.034;18.576;2023-04-01T11:32:52;21.33;;;10.70;;
70927;SDS011;58587;53.034;18.576;2023-04-01T11:38:13;22.10;;;11.95;;
70927;SDS011;58587;53.034;18.576;2023-04-01T11:40:59;15.07;;;9.75;;
70927;SDS011;58587;53.034;18.576;2023-04-01T11:46:25;22.00;;;11.55;;
70927;SDS011;58587;53.034;18.576;2023-04-01T11:54:24;14.60;;;8.90;;
70927;SDS011;58587;53.034;18.576;2023-04-01T12:02:38;10.00;;;7.07;;
70927;SDS011;58587;53.034;18.576;2023-04-01T12:10:52;10.85;;;7.13;;
70927;SDS011;58587;53.034;18.576;2023-04-01T12:29:41;16.67;;;9.98;;
70927;SDS011;58587;53.034;18.576;2023-04-01T12:32:31;19.00;;;11.65;;
70927;SDS011;58587;53.034;18.576;2023-04-01T12:35:18;11.63;;;9.00;;
70927;SDS011;58587;53.034;18.576;2023-04-01T12:37:54;11.77;;;7.93;;
70927;SDS011;58587;53.034;18.576;2023-04-01T12:40:46;12.82;;;7.25;;
70927;SDS011;58587;53.034;18.576;2023-04-01T12:57:04;8.70;;;5.60;;
70927;SDS011;58587;53.034;18.576;2023-04-01T13:16:49;12.93;;;8.32;;
70927;SDS011;58587;53.034;18.576;2023-04-01T13:19:29;9.60;;;6.55;;
70927;SDS011;58587;53.034;18.576;2023-04-01T13:22:04;10.15;;;6.45;;
70927;SDS011;58587;53.034;18.576;2023-04-01T13:24:41;11.27;;;6.93;;
70927;SDS011;58587;53.034;18.576;2023-04-01T13:27:21;14.90;;;8.90;;
70927;SDS011;58587;53.034;18.576;2023-04-01T13:30:16;9.95;;;6.68;;
70927;SDS011;58587;53.034;18.576;2023-04-01T13:32:47;12.90;;;8.25;;
70927;SDS011;58587;53.034;18.576;2023-04-01T13:35:28;14.60;;;8.98;;
70927;SDS011;58587;53.034;18.576;2023-04-01T13:43:41;17.95;;;10.00;;
70927;SDS011;58587;53.034;18.576;2023-04-01T13:46:20;15.13;;;9.30;;
70927;SDS011;58587;53.034;18.576;2023-04-01T13:52:05;12.10;;;7.70;;
70927;SDS011;58587;53.034;18.576;2023-04-01T14:00:16;10.68;;;7.65;;
70927;SDS011;58587;53.034;18.576;2023-04-01T14:14:46;12.43;;;7.38;;
70927;SDS011;58587;53.034;18.576;2023-04-01T14:26:27;22.73;;;10.85;;
70927;SDS011;58587;53.034;18.576;2023-04-01T14:31:47;31.58;;;12.50;;
70927;SDS011;58587;53.034;18.576;2023-04-01T14:34:23;12.35;;;6.90;;
70927;SDS011;58587;53.034;18.576;2023-04-01T14:37:08;31.40;;;12.40;;
70927;SDS011;58587;53.034;18.576;2023-04-01T14:39:57;17.30;;;8.32;;
70927;SDS011;58587;53.034;18.576;2023-04-01T14:48:34;22.63;;;8.60;;
70927;SDS011;58587;53.034;18.576;2023-04-01T14:51:08;25.55;;;10.65;;
70927;SDS011;58587;53.034;18.576;2023-04-01T14:53:40;31.73;;;11.73;;
70927;SDS011;58587;53.034;18.576;2023-04-01T14:56:10;23.35;;;8.90;;
70927;SDS011;58587;53.034;18.576;2023-04-01T14:58:43;22.10;;;9.40;;
70927;SDS011;58587;53.034;18.576;2023-04-01T15:01:25;35.25;;;11.85;;
70927;SDS011;58587;53.034;18.576;2023-04-01T15:12:23;17.63;;;8.95;;
70927;SDS011;58587;53.034;18.576;2023-04-01T15:14:58;14.88;;;8.75;;
70927;SDS011;58587;53.034;18.576;2023-04-01T15:17:45;15.33;;;7.27;;
70927;SDS011;58587;53.034;18.576;2023-04-01T15:20:31;17.13;;;7.25;;
70927;SDS011;58587;53.034;18.576;2023-04-01T15:23:02;17.48;;;8.57;;
70927;SDS011;58587;53.034;18.576;2023-04-01T15:28:38;36.00;;;11.25;;
70927;SDS011;58587;53.034;18.576;2023-04-01T15:33:58;17.30;;;7.57;;
70927;SDS011;58587;53.034;18.576;2023-04-01T15:39:50;18.83;;;9.27;;
70927;SDS011;58587;53.034;18.576;2023-04-01T15:58:23;19.73;;;10.23;;
70927;SDS011;58587;53.034;18.576;2023-04-01T16:04:31;13.27;;;8.38;;
70927;SDS011;58587;53.034;18.576;2023-04-01T16:09:43;11.05;;;6.35;;
70927;SDS011;58587;53.034;18.576;2023-04-01T16:12:53;26.67;;;12.10;;
70927;SDS011;58587;53.034;18.576;2023-04-01T16:15:37;15.40;;;6.55;;
70927;SDS011;58587;53.034;18.576;2023-04-01T16:18:20;16.25;;;6.38;;
70927;SDS011;58587;53.034;18.576;2023-04-01T16:23:56;11.90;;;6.25;;
70927;SDS011;58587;53.034;18.576;2023-04-01T16:26:29;12.88;;;5.97;;
70927;SDS011;58587;53.034;18.576;2023-04-01T16:29:11;12.02;;;5.50;;
70927;SDS011;58587;53.034;18.576;2023-04-01T16:34:21;12.93;;;7.68;;
70927;SDS011;58587;53.034;18.576;2023-04-01T16:36:54;14.10;;;7.55;;
70927;SDS011;58587;53.034;18.576;2023-04-01T16:42:35;14.57;;;7.47;;
70927;SDS011;58587;53.034;18.576;2023-04-01T16:47:49;9.67;;;5.17;;
70927;SDS011;58587;53.034;18.576;2023-04-01T16:50:20;10.75;;;5.70;;
70927;SDS011;58587;53.034;18.576;2023-04-01T16:55:18;13.27;;;7.20;;
70927;SDS011;58587;53.034;18.576;2023-04-01T17:00:18;10.90;;;6.20;;
70927;SDS011;58587;53.034;18.576;2023-04-01T17:04:07;19.25;;;8.52;;
70927;SDS011;58587;53.034;18.576;2023-04-01T17:12:06;10.77;;;5.97;;
70927;SDS011;58587;53.034;18.576;2023-04-01T17:22:12;15.98;;;8.23;;
70927;SDS011;58587;53.034;18.576;2023-04-01T17:30:26;21.27;;;11.02;;
70927;SDS011;58587;53.034;18.576;2023-04-01T17:39:05;17.85;;;8.80;;
70927;SDS011;58587;53.034;18.576;2023-04-01T17:41:51;17.30;;;7.43;;
70927;SDS011;58587;53.034;18.576;2023-04-01T17:49:54;12.10;;;7.47;;
70927;SDS011;58587;53.034;18.576;2023-04-01T17:52:30;15.75;;;7.97;;
70927;SDS011;58587;53.034;18.576;2023-04-01T17:57:52;11.43;;;6.32;;
70927;SDS011;58587;53.034;18.576;2023-04-01T18:16:29;7.03;;;4.53;;
70927;SDS011;58587;53.034;18.576;2023-04-01T18:21:36;9.75;;;6.68;;
70927;SDS011;58587;53.034;18.576;2023-04-01T18:24:40;9.70;;;5.40;;
70927;SDS011;58587;53.034;18.576;2023-04-01T18:29:41;41.42;;;11.55;;
70927;SDS011;58587;53.034;18.576;2023-04-01T18:37:34;19.15;;;7.75;;
70927;SDS011;58587;53.034;18.576;2023-04-01T18:40:16;23.85;;;8.50;;
70927;SDS011;58587;53.034;18.576;2023-04-01T18:42:57;16.38;;;6.78;;
70927;SDS011;58587;53.034;18.576;2023-04-01T18:48:38;10.70;;;5.57;;
70927;SDS011;58587;53.034;18.576;2023-04-01T18:53:41;14.68;;;6.40;;
70927;SDS011;58587;53.034;18.576;2023-04-01T18:56:22;11.52;;;5.13;;
70927;SDS011;58587;53.034;18.576;2023-04-01T18:59:23;17.33;;;5.90;;
70927;SDS011;58587;53.034;18.576;2023-04-01T19:10:12;26.40;;;9.00;;
70927;SDS011;58587;53.034;18.576;2023-04-01T19:18:38;16.58;;;6.85;;
70927;SDS011;58587;53.034;18.576;2023-04-01T19:21:20;12.35;;;6.65;;
70927;SDS011;58587;53.034;18.576;2023-04-01T19:26:39;20.33;;;7.40;;
70927;SDS011;58587;53.034;18.576;2023-04-01T19:34:35;13.90;;;6.47;;
70927;SDS011;58587;53.034;18.576;2023-04-01T19:37:19;11.23;;;5.72;;
70927;SDS011;58587;53.034;18.576;2023-04-01T19:51:07;10.52;;;5.43;;
70927;SDS011;58587;53.034;18.576;2023-04-01T19:53:49;10.50;;;5.18;;
70927;SDS011;58587;53.034;18.576;2023-04-01T19:56:24;8.10;;;4.80;;
70927;SDS011;58587;53.034;18.576;2023-04-01T20:01:36;18.55;;;7.15;;
70927;SDS011;58587;53.034;18.576;2023-04-01T20:04:10;10.50;;;5.03;;
70927;SDS011;58587;53.034;18.576;2023-04-01T20:14:59;11.88;;;4.85;;
70927;SDS011;58587;53.034;18.576;2023-04-01T20:25:55;10.80;;;5.95;;
70927;SDS011;58587;53.034;18.576;2023-04-01T20:28:25;13.85;;;6.10;;
70927;SDS011;58587;53.034;18.576;2023-04-01T20:33:41;11.70;;;5.18;;
70927;SDS011;58587;53.034;18.576;2023-04-01T20:36:30;9.10;;;5.03;;
70927;SDS011;58587;53.034;18.576;2023-04-01T20:53:28;10.63;;;5.88;;
70927;SDS011;58587;53.034;18.576;2023-04-01T21:01:47;11.10;;;5.50;;
70927;SDS011;58587;53.034;18.576;2023-04-01T21:10:05;9.23;;;4.50;;
70927;SDS011;58587;53.034;18.576;2023-04-01T21:45:41;8.25;;;4.80;;
70927;SDS011;58587;53.034;18.576;2023-04-01T21:48:34;10.25;;;5.20;;
70927;SDS011;58587;53.034;18.576;2023-04-01T22:05:30;9.77;;;5.53;;
70927;SDS011;58587;53.034;18.576;2023-04-01T22:13:10;9.57;;;4.80;;
70927;SDS011;58587;53.034;18.576;2023-04-01T22:15:58;8.23;;;5.10;;
70927;SDS011;58587;53.034;18.576;2023-04-01T22:18:34;10.47;;;5.10;;
70927;SDS011;58587;53.034;18.576;2023-04-01T22:21:18;9.88;;;4.97;;
70927;SDS011;58587;53.034;18.576;2023-04-01T22:27:01;9.13;;;5.07;;
70927;SDS011;58587;53.034;18.576;2023-04-01T22:29:41;10.45;;;5.43;;
70927;SDS011;58587;53.034;18.576;2023-04-01T22:32:18;9.80;;;5.77;;
70927;SDS011;58587;53.034;18.576;2023-04-01T22:35:08;8.38;;;4.60;;
70927;SDS011;58587;53.034;18.576;2023-04-01T22:38:01;5.88;;;4.10;;
70927;SDS011;58587;53.034;18.576;2023-04-01T22:43:39;6.70;;;3.80;;
70927;SDS011;58587;53.034;18.576;2023-04-01T22:52:04;8.85;;;4.90;;
70927;SDS011;58587;53.034;18.576;2023-04-01T22:54:51;5.90;;;3.53;;
70927;SDS011;58587;53.034;18.576;2023-04-01T23:00:07;7.30;;;4.03;;
70927;SDS011;58587;53.034;18.576;2023-04-01T23:05:29;7.10;;;4.28;;
70927;SDS011;58587;53.034;18.576;2023-04-01T23:08:28;8.40;;;4.00;;
70927;SDS011;58587;53.034;18.576;2023-04-01T23:11:04;5.40;;;3.35;;
70927;SDS011;58587;53.034;18.576;2023-04-01T23:13:39;5.57;;;3.80;;
70927;SDS011;58587;53.034;18.576;2023-04-01T23:16:10;5.10;;;3.47;;
70927;SDS011;58587;53.034;18.576;2023-04-01T23:18:41;6.22;;;4.00;;
70927;SDS011;58587;53.034;18.576;2023-04-01T23:29:38;4.40;;;3.13;;
70927;SDS011;58587;53.034;18.576;2023-04-01T23:32:17;6.25;;;3.08;;
70927;SDS011;58587;53.034;18.576;2023-04-01T23:34:51;5.60;;;3.15;;
70927;SDS011;58587;53.034;18.576;2023-04-01T23:37:18;6.22;;;3.22;;
